Time;durP1;ratioP1;P1;durP2;ratioP2;P2;SDS_P1;SDS_P2;PMS_P1;PMS_P2;Temp;Humidity;BMP_temperature;BMP_pressure;BME280_temperature;BME280_humidity;BME280_pressure;Samples;Min_cycle;Max_cycle;Signal;HPM_P1;HPM_P2
2021/07/25 00:01:53;;;;;;;8.30;6.22;;;;;;;19.06;100.00;99205.77;1676499;84;20992;-71
2021/07/25 00:04:21;;;;;;;10.78;6.70;;;;;;;19.01;100.00;99205.08;1675647;84;20940;-70
2021/07/25 00:06:50;;;;;;;9.53;6.85;;;;;;;18.97;100.00;99202.12;1679280;84;21466;-71
2021/07/25 00:09:18;;;;;;;9.30;6.95;;;;;;;18.95;100.00;99201.77;1667777;85;21080;-68
2021/07/25 00:11:49;;;;;;;13.50;6.80;;;;;;;18.94;100.00;99200.91;1656889;84;20940;-69
2021/07/25 00:14:17;;;;;;;12.88;6.90;;;;;;;18.93;100.00;99199.16;1654906;84;21063;-70
2021/07/25 00:16:45;;;;;;;8.85;6.55;;;;;;;18.94;100.00;99201.37;1680001;83;20980;-70
2021/07/25 00:19:12;;;;;;;12.80;6.78;;;;;;;18.91;100.00;99195.64;1665491;84;21518;-72
2021/07/25 00:21:41;;;;;;;9.03;6.85;;;;;;;18.87;100.00;99197.56;1652157;85;21474;-70
2021/07/25 00:24:09;;;;;;;8.18;6.72;;;;;;;18.82;100.00;99196.88;1668901;84;21047;-70
2021/07/25 00:26:47;;;;;;;8.33;6.28;;;;;;;18.77;100.00;99192.17;1653348;85;21047;-68
2021/07/25 00:29:10;;;;;;;8.88;6.53;;;;;;;18.75;100.00;99194.50;1675421;84;21012;-69
2021/07/25 00:31:38;;;;;;;8.98;6.40;;;;;;;18.73;100.00;99189.68;1670512;83;21635;-69
2021/07/25 00:34:06;;;;;;;11.75;6.40;;;;;;;18.69;100.00;99189.39;1658767;85;21101;-69
2021/07/25 00:36:33;;;;;;;12.63;7.30;;;;;;;18.66;100.00;99190.84;1658200;84;20956;-71
2021/07/25 00:39:01;;;;;;;11.83;7.03;;;;;;;18.62;100.00;99194.56;1640728;86;20971;-71
2021/07/25 00:41:29;;;;;;;13.15;7.10;;;;;;;18.58;100.00;99196.45;1655884;86;20963;-70
2021/07/25 00:43:59;;;;;;;9.70;6.33;;;;;;;18.53;100.00;99193.95;1652715;85;21003;-71
2021/07/25 00:46:27;;;;;;;11.12;6.20;;;;;;;18.52;100.00;99195.34;1668387;84;21114;-69
2021/07/25 00:48:55;;;;;;;9.43;6.30;;;;;;;18.51;100.00;99195.81;1666587;83;20957;-67
2021/07/25 00:51:24;;;;;;;11.22;6.12;;;;;;;18.49;100.00;99192.78;1651595;85;20928;-71
2021/07/25 00:53:52;;;;;;;11.10;7.00;;;;;;;18.47;100.00;99193.31;1655877;85;21027;-70
2021/07/25 00:56:20;;;;;;;8.80;6.40;;;;;;;18.42;100.00;99195.25;1662534;84;21008;-70
2021/07/25 00:58:47;;;;;;;9.35;7.10;;;;;;;18.40;100.00;99199.31;1659813;85;21113;-69
2021/07/25 01:01:16;;;;;;;8.88;6.47;;;;;;;18.38;100.00;99197.62;1651501;84;20974;-69
2021/07/25 01:04:29;;;;;;;8.43;6.10;;;;;;;18.36;100.00;99197.69;1642985;85;21419;-69
2021/07/25 01:07:34;;;;;;;9.63;6.47;;;;;;;18.36;100.00;99197.69;1668369;85;21484;-70
2021/07/25 01:10:15;;;;;;;7.92;6.20;;;;;;;18.33;100.00;99192.45;1664515;84;20928;-69
2021/07/25 01:12:56;;;;;;;7.80;6.40;;;;;;;18.30;100.00;99193.03;1673401;84;21489;-69
2021/07/25 01:15:27;;;;;;;8.08;6.30;;;;;;;18.28;100.00;99193.09;1671612;84;20959;-69
2021/07/25 01:17:58;;;;;;;11.43;6.90;;;;;;;18.26;100.00;99200.28;1676579;84;20904;-69
2021/07/25 01:20:26;;;;;;;8.30;6.05;;;;;;;18.26;100.00;99197.62;1626247;85;20877;-70
2021/07/25 01:22:56;;;;;;;10.15;6.83;;;;;;;18.28;100.00;99200.23;1677799;85;20989;-69
2021/07/25 01:25:25;;;;;;;12.85;6.90;;;;;;;18.25;100.00;99196.74;1653917;85;21112;-69
2021/07/25 01:28:26;;;;;;;11.12;6.67;;;;;;;18.22;100.00;99195.52;1658221;85;20917;-69
2021/07/25 01:31:01;;;;;;;10.72;6.72;;;;;;;18.18;100.00;99191.22;1659098;85;21483;-64
2021/07/25 01:33:32;;;;;;;8.83;6.28;;;;;;;18.13;100.00;99192.31;1674105;85;21079;-65
2021/07/25 01:36:00;;;;;;;10.15;6.42;;;;;;;18.09;100.00;99196.89;1656496;85;20985;-64
2021/07/25 01:38:29;;;;;;;12.63;6.25;;;;;;;18.07;100.00;99196.08;1602843;88;23728;-65
2021/07/25 01:41:12;;;;;;;10.30;7.00;;;;;;;18.08;100.00;99196.48;1656913;84;21476;-64
2021/07/25 01:43:47;;;;;;;11.20;6.78;;;;;;;18.08;100.00;99200.48;1672163;84;21021;-64
2021/07/25 01:46:15;;;;;;;11.30;6.22;;;;;;;18.08;100.00;99193.81;1676766;84;21047;-64
2021/07/25 01:48:44;;;;;;;15.38;7.60;;;;;;;18.08;100.00;99198.28;1664026;85;21498;-65
2021/07/25 01:51:13;;;;;;;8.75;6.47;;;;;;;18.08;100.00;99200.48;1668771;84;21154;-68
2021/07/25 01:53:42;;;;;;;9.78;6.67;;;;;;;18.09;100.00;99207.57;1676373;85;21507;-66
2021/07/25 01:56:10;;;;;;;10.55;5.92;;;;;;;18.12;100.00;99211.47;1667872;84;21478;-65
2021/07/25 01:58:39;;;;;;;7.50;5.33;;;;;;;18.14;100.00;99214.95;1654088;85;21479;-65
2021/07/25 02:01:07;;;;;;;5.17;4.58;;;;;;;18.14;100.00;99216.28;1653968;85;21454;-65
2021/07/25 02:03:37;;;;;;;6.70;4.90;;;;;;;18.14;100.00;99220.75;1655730;85;21059;-65
2021/07/25 02:06:06;;;;;;;7.00;4.83;;;;;;;18.13;100.00;99219.88;1648489;85;21440;-66
2021/07/25 02:08:35;;;;;;;10.65;5.00;;;;;;;18.11;100.00;99218.20;1672920;84;21518;-66
2021/07/25 02:11:03;;;;;;;9.78;4.92;;;;;;;18.10;100.00;99222.66;1645141;85;21562;-64
2021/07/25 02:13:32;;;;;;;7.05;4.45;;;;;;;18.10;100.00;99222.66;1646765;85;20889;-65
2021/07/25 02:16:00;;;;;;;8.40;5.00;;;;;;;18.10;100.00;99226.66;1656726;84;21423;-65
2021/07/25 02:18:28;;;;;;;6.95;4.85;;;;;;;18.08;100.00;99223.64;1658101;85;21439;-64
2021/07/25 02:20:57;;;;;;;6.72;5.17;;;;;;;18.07;100.00;99223.23;1658584;85;21683;-65
2021/07/25 02:23:25;;;;;;;10.40;5.50;;;;;;;18.05;100.00;99221.95;1674274;85;20968;-64
2021/07/25 02:25:53;;;;;;;9.08;5.28;;;;;;;18.04;100.00;99214.00;1665245;84;21483;-64
2021/07/25 02:28:21;;;;;;;8.15;4.75;;;;;;;18.03;100.00;99220.27;1644110;85;21055;-64
2021/07/25 02:30:50;;;;;;;9.80;5.85;;;;;;;18.03;100.00;99219.80;1653299;85;21028;-65
2021/07/25 02:33:18;;;;;;;9.58;5.40;;;;;;;18.04;100.00;99222.87;1660471;85;21075;-65
2021/07/25 02:35:46;;;;;;;13.85;5.20;;;;;;;18.04;100.00;99225.55;1681760;85;21012;-64
2021/07/25 02:38:14;;;;;;;7.92;5.60;;;;;;;18.03;100.00;99225.14;1667866;85;20869;-64
2021/07/25 02:40:42;;;;;;;13.93;5.92;;;;;;;18.02;100.00;99221.19;1682389;85;21083;-64
2021/07/25 02:43:10;;;;;;;7.42;5.78;;;;;;;18.01;100.00;99217.65;1661171;84;20931;-64
2021/07/25 02:45:38;;;;;;;11.80;5.83;;;;;;;18.01;100.00;99221.66;1649028;84;20999;-64
2021/07/25 02:48:06;;;;;;;8.58;5.90;;;;;;;18.01;100.00;99222.98;1687726;84;21109;-65
2021/07/25 02:50:34;;;;;;;6.75;5.37;;;;;;;18.04;100.00;99228.68;1678254;85;20971;-67
2021/07/25 02:53:04;;;;;;;8.58;5.45;;;;;;;18.03;100.00;99222.47;1634544;85;21102;-67
2021/07/25 02:55:32;;;;;;;10.03;6.30;;;;;;;18.03;100.00;99221.59;1605016;87;21436;-65
2021/07/25 02:58:00;;;;;;;13.35;6.30;;;;;;;18.02;100.00;99222.52;1604220;88;21032;-65
2021/07/25 03:00:28;;;;;;;8.60;6.50;;;;;;;18.03;100.00;99222.93;1674968;83;20912;-64
2021/07/25 03:02:56;;;;;;;10.32;5.60;;;;;;;18.04;100.00;99226.88;1678156;83;21007;-65
2021/07/25 03:05:24;;;;;;;50.98;7.97;;;;;;;18.08;100.00;99227.19;1655587;84;21097;-65
2021/07/25 03:07:52;;;;;;;12.90;6.15;;;;;;;18.12;100.00;99227.95;1653913;85;21016;-67
2021/07/25 03:10:20;;;;;;;14.10;6.25;;;;;;;18.15;100.00;99233.17;1650770;85;21092;-67
2021/07/25 03:12:50;;;;;;;44.88;7.58;;;;;;;18.16;100.00;99229.12;1672689;84;21023;-73
2021/07/25 03:15:19;;;;;;;22.32;6.97;;;;;;;18.16;100.00;99231.78;1673062;85;21515;-65
2021/07/25 03:17:47;;;;;;;18.92;6.58;;;;;;;18.17;100.00;99232.20;1684188;84;21913;-64
2021/07/25 03:20:15;;;;;;;13.15;6.30;;;;;;;18.18;100.00;99236.61;1676099;84;20949;-64
2021/07/25 03:22:44;;;;;;;26.68;7.22;;;;;;;18.22;100.00;99241.38;1607399;88;20900;-64
2021/07/25 03:25:13;;;;;;;17.10;6.83;;;;;;;18.23;100.00;99247.13;1657919;85;21455;-65
2021/07/25 03:27:40;;;;;;;19.37;13.65;;;;;;;18.22;100.00;99250.72;1657705;85;21064;-64
2021/07/25 03:30:09;;;;;;;11.70;6.42;;;;;;;18.23;100.00;99248.45;1675921;85;21940;-67
2021/07/25 03:32:37;;;;;;;15.35;5.85;;;;;;;18.25;100.00;99257.28;1658543;85;20889;-65
2021/07/25 03:35:05;;;;;;;9.15;5.53;;;;;;;18.29;100.00;99258.92;1676724;84;20978;-66
2021/07/25 03:37:39;;;;;;;10.78;5.97;;;;;;;18.32;100.00;99264.61;1674672;85;21444;-66
2021/07/25 03:40:06;;;;;;;11.15;5.55;;;;;;;18.35;100.00;99255.16;1649244;85;20945;-66
2021/07/25 03:42:34;;;;;;;7.58;5.95;;;;;;;18.39;100.00;99266.14;1658708;85;21722;-66
2021/07/25 03:45:02;;;;;;;7.03;6.20;;;;;;;18.42;100.00;99263.36;1649607;85;21578;-66
2021/07/25 03:47:30;;;;;;;11.00;7.30;;;;;;;18.46;100.00;99267.70;1673610;85;21031;-67
2021/07/25 03:49:58;;;;;;;17.20;8.28;;;;;;;18.49;100.00;99269.79;1653900;84;21043;-66
2021/07/25 03:52:26;;;;;;;11.12;7.12;;;;;;;18.54;100.00;99265.15;1664278;85;21154;-64
2021/07/25 03:54:54;;;;;;;16.25;8.55;;;;;;;18.59;100.00;99268.11;1663173;85;21104;-64
2021/07/25 03:57:22;;;;;;;20.68;8.83;;;;;;;18.62;100.00;99270.70;1652014;85;21511;-64
2021/07/25 03:59:51;;;;;;;15.63;8.63;;;;;;;18.67;100.00;99274.08;1677583;85;20881;-63
2021/07/25 04:02:19;;;;;;;17.42;9.45;;;;;;;18.74;100.00;99278.27;1672115;84;21008;-64
2021/07/25 04:04:47;;;;;;;16.95;9.35;;;;;;;18.76;100.00;99276.41;1667925;84;20872;-64
2021/07/25 04:07:15;;;;;;;16.20;9.23;;;;;;;18.80;100.00;99278.91;1676818;84;21079;-64
2021/07/25 04:09:42;;;;;;;17.82;9.98;;;;;;;18.82;100.00;99282.86;1663178;84;20979;-64
2021/07/25 04:12:10;;;;;;;18.57;11.40;;;;;;;18.82;100.00;99281.53;1671995;84;20989;-64
2021/07/25 04:14:38;;;;;;;27.82;14.03;;;;;;;18.78;100.00;99287.45;1660484;85;20928;-63
2021/07/25 04:17:06;;;;;;;27.52;14.70;;;;;;;18.75;100.00;99283.55;1666680;85;20951;-65
2021/07/25 04:19:33;;;;;;;34.30;16.57;;;;;;;18.74;100.00;99287.16;1660210;85;21747;-64
2021/07/25 04:22:01;;;;;;;30.77;16.10;;;;;;;18.77;100.00;99295.06;1659477;84;21514;-63
2021/07/25 04:24:29;;;;;;;25.27;14.20;;;;;;;18.81;100.00;99297.16;1651283;84;21543;-65
2021/07/25 04:26:57;;;;;;;23.40;14.45;;;;;;;18.88;100.00;99302.67;1654175;85;21434;-63
2021/07/25 04:29:25;;;;;;;21.48;13.45;;;;;;;18.95;100.00;99306.02;1654257;85;21102;-65
2021/07/25 04:31:53;;;;;;;17.32;11.08;;;;;;;18.99;100.00;99299.63;1658607;84;21182;-63
2021/07/25 04:34:20;;;;;;;15.55;9.15;;;;;;;19.01;100.00;99301.78;1664136;85;21032;-64
2021/07/25 04:36:50;;;;;;;12.03;9.03;;;;;;;19.03;100.00;99302.13;1664675;85;21440;-65
2021/07/25 04:39:18;;;;;;;20.40;9.58;;;;;;;19.08;100.00;99302.83;1670701;85;20932;-64
2021/07/25 04:41:55;;;;;;;34.60;10.53;;;;;;;19.12;100.00;99301.78;1666963;85;20916;-64
2021/07/25 04:44:42;;;;;;;17.42;10.15;;;;;;;19.17;100.00;99302.94;1667486;85;21094;-66
2021/07/25 04:47:13;;;;;;;13.18;9.70;;;;;;;19.18;100.00;99304.68;1671040;85;21022;-65
2021/07/25 04:49:57;;;;;;;11.97;9.25;;;;;;;19.24;100.00;99308.45;1668005;85;20978;-64
2021/07/25 04:52:25;;;;;;;13.68;9.78;;;;;;;19.33;100.00;99307.22;1668028;85;21341;-65
2021/07/25 04:54:52;;;;;;;13.88;8.85;;;;;;;19.42;100.00;99306.42;1672214;85;21420;-65
2021/07/25 04:57:20;;;;;;;13.18;9.58;;;;;;;19.51;100.00;99309.20;1672177;85;21129;-64
2021/07/25 04:59:50;;;;;;;41.83;10.68;;;;;;;19.60;100.00;99310.67;1618399;84;20879;-63
2021/07/25 05:02:20;;;;;;;16.80;9.38;;;;;;;19.69;100.00;99319.66;1684392;84;21423;-65
2021/07/25 05:04:48;;;;;;;13.90;8.95;;;;;;;19.80;100.00;99316.95;1671377;84;21430;-64
2021/07/25 05:07:15;;;;;;;9.90;8.58;;;;;;;19.90;100.00;99320.63;1666781;85;21098;-65
2021/07/25 05:09:43;;;;;;;16.95;9.35;;;;;;;19.99;100.00;99321.11;1667972;85;21459;-64
2021/07/25 05:12:23;;;;;;;14.78;9.68;;;;;;;20.06;100.00;99318.58;1675905;85;20889;-64
2021/07/25 05:15:08;;;;;;;11.60;8.93;;;;;;;20.14;100.00;99320.93;1655142;85;21434;-64
2021/07/25 05:17:52;;;;;;;12.00;9.08;;;;;;;20.24;100.00;99320.94;1643607;85;21539;-65
2021/07/25 05:20:20;;;;;;;17.50;8.75;;;;;;;20.36;100.00;99323.59;1649433;85;21427;-65
2021/07/25 05:23:05;;;;;;;11.22;8.35;;;;;;;20.50;100.00;99322.56;1651603;85;21098;-65
2021/07/25 05:25:33;;;;;;;11.35;8.10;;;;;;;20.60;100.00;99325.70;1676637;85;20897;-64
2021/07/25 05:28:05;;;;;;;14.93;8.23;;;;;;;20.73;100.00;99327.77;1656507;85;20903;-65
2021/07/25 05:30:37;;;;;;;12.18;7.90;;;;;;;20.85;100.00;99330.87;1657224;85;20952;-64
2021/07/25 05:33:07;;;;;;;12.60;8.20;;;;;;;20.97;100.00;99328.50;1658590;85;20983;-66
2021/07/25 05:35:34;;;;;;;14.40;8.55;;;;;;;21.09;100.00;99323.05;1662887;85;21106;-66
2021/07/25 05:38:03;;;;;;;17.32;8.38;;;;;;;21.21;100.00;99329.66;1664168;85;21447;-66
2021/07/25 05:40:30;;;;;;;14.30;9.03;;;;;;;21.28;100.00;99326.64;1656491;85;21501;-66
2021/07/25 05:42:58;;;;;;;12.03;7.87;;;;;;;21.38;100.00;99320.41;1660873;85;20901;-65
2021/07/25 05:45:25;;;;;;;11.00;7.35;;;;;;;21.51;100.00;99326.92;1669444;85;21411;-66
2021/07/25 05:47:53;;;;;;;14.75;7.60;;;;;;;21.62;100.00;99329.09;1665828;84;21098;-66
2021/07/25 05:50:21;;;;;;;14.87;7.58;;;;;;;21.72;100.00;99323.67;1662942;85;21078;-66
2021/07/25 05:52:54;;;;;;;16.27;8.60;;;;;;;21.83;100.00;99321.84;1672303;84;21042;-67
2021/07/25 05:55:26;;;;;;;17.82;8.33;;;;;;;21.93;100.00;99324.47;1662727;85;20952;-67
2021/07/25 05:57:54;;;;;;;14.00;8.40;;;;;;;22.00;100.00;99320.53;1672214;85;20949;-66
2021/07/25 06:00:22;;;;;;;17.07;10.43;;;;;;;22.06;100.00;99315.35;1649165;85;21103;-66
2021/07/25 06:02:57;;;;;;;17.67;11.45;;;;;;;22.15;100.00;99313.55;1649127;85;21141;-66
2021/07/25 06:05:25;;;;;;;16.85;10.72;;;;;;;22.22;100.00;99307.78;1658236;85;20939;-67
2021/07/25 06:07:52;;;;;;;11.65;10.43;;;;;;;22.35;100.00;99304.49;1669217;85;21012;-65
2021/07/25 06:10:20;;;;;;;17.90;9.00;;;;;;;22.46;100.00;99306.15;1676419;85;20904;-65
2021/07/25 06:12:48;;;;;;;12.53;8.58;;;;;;;22.53;100.00;99298.16;1656253;85;21697;-66
2021/07/25 06:15:17;;;;;;;13.20;8.63;;;;;;;22.59;100.00;99292.45;1663017;85;21507;-66
2021/07/25 06:17:47;;;;;;;9.13;7.62;;;;;;;22.68;100.00;99287.06;1649106;85;32475;-65
2021/07/25 06:20:15;;;;;;;11.00;8.00;;;;;;;22.77;100.00;99292.85;1667476;85;20947;-64
2021/07/25 06:22:45;;;;;;;42.33;9.23;;;;;;;22.86;100.00;99288.36;1662978;85;21018;-64
2021/07/25 06:25:14;;;;;;;57.75;9.80;;;;;;;22.96;100.00;99286.03;1667384;85;21214;-64
2021/07/25 06:27:41;;;;;;;9.15;7.60;;;;;;;23.06;100.00;99286.39;1669286;85;20947;-65
2021/07/25 06:30:09;;;;;;;16.45;7.55;;;;;;;23.16;100.00;99285.80;1672085;85;20857;-65
2021/07/25 06:33:09;;;;;;;46.33;9.75;;;;;;;23.25;100.00;99285.80;1666673;85;21182;-64
2021/07/25 06:35:42;;;;;;;10.45;6.97;;;;;;;23.34;100.00;99287.98;1676735;85;20916;-63
2021/07/25 06:38:20;;;;;;;9.80;7.17;;;;;;;23.45;100.00;99280.16;1667438;85;21140;-64
2021/07/25 06:40:54;;;;;;;16.35;7.95;;;;;;;23.54;100.00;99283.68;1672135;85;20931;-64
2021/07/25 06:43:22;;;;;;;10.23;7.53;;;;;;;23.65;100.00;99279.09;1668213;84;21505;-69
2021/07/25 06:45:50;;;;;;;9.55;7.87;;;;;;;23.75;100.00;99273.56;1691732;83;20951;-70
2021/07/25 06:48:26;;;;;;;9.78;7.17;;;;;;;23.85;100.00;99276.11;1679319;84;21521;-68
2021/07/25 06:50:58;;;;;;;8.53;7.00;;;;;;;23.94;100.00;99271.14;1675436;84;21099;-64
2021/07/25 06:53:28;;;;;;;8.73;7.28;;;;;;;24.04;100.00;99273.67;1684013;84;20939;-64
2021/07/25 06:55:59;;;;;;;12.50;7.47;;;;;;;24.09;100.00;99268.41;1674100;84;20904;-66
2021/07/25 06:58:27;;;;;;;11.15;6.70;;;;;;;24.17;100.00;99266.63;1674900;84;21486;-67
2021/07/25 07:00:54;;;;;;;14.93;7.22;;;;;;;24.25;100.00;99264.34;1684221;84;20911;-65
2021/07/25 07:03:21;;;;;;;20.20;6.97;;;;;;;24.36;100.00;99261.89;1674353;84;21133;-67
2021/07/25 07:05:49;;;;;;;9.13;6.70;;;;;;;24.48;100.00;99261.63;1675669;84;21467;-66
2021/07/25 07:08:16;;;;;;;11.05;6.75;;;;;;;24.59;100.00;99255.58;1672499;84;21553;-65
2021/07/25 07:10:46;;;;;;;58.83;11.20;;;;;;;24.71;100.00;99258.89;1678235;84;21458;-66
2021/07/25 07:13:16;;;;;;;9.50;7.30;;;;;;;24.82;100.00;99259.56;1678941;84;20963;-65
2021/07/25 07:15:45;;;;;;;9.10;6.65;;;;;;;24.90;100.00;99262.17;1690320;83;21114;-68
2021/07/25 07:18:12;;;;;;;12.85;6.28;;;;;;;25.03;100.00;99262.30;1682965;84;21529;-66
2021/07/25 07:20:40;;;;;;;7.53;6.22;;;;;;;25.18;100.00;99264.53;1677864;83;20963;-68
2021/07/25 07:24:36;;;;;;;11.43;6.00;;;;;;;25.39;100.00;99264.48;1798281;79;22259;-68
2021/07/25 07:27:05;;;;;;;8.75;6.00;;;;;;;25.47;100.00;99269.39;1734745;81;20896;-67
2021/07/25 07:29:32;;;;;;;8.60;5.80;;;;;;;25.55;100.00;99258.50;1749872;80;21155;-69
2021/07/25 07:32:00;;;;;;;7.20;5.83;;;;;;;25.67;100.00;99259.56;1745852;81;20876;-70
2021/07/25 07:34:28;;;;;;;14.43;6.85;;;;;;;25.80;100.00;99255.07;1758248;81;21003;-72
2021/07/25 07:36:56;;;;;;;13.32;6.17;;;;;;;25.92;100.00;99263.70;1758230;81;20911;-66
2021/07/25 07:39:24;;;;;;;9.13;5.95;;;;;;;26.02;100.00;99262.63;1758641;80;20927;-67
2021/07/25 07:41:52;;;;;;;9.38;6.33;;;;;;;26.10;100.00;99252.16;1758294;80;21169;-68
2021/07/25 07:44:19;;;;;;;11.00;6.30;;;;;;;26.20;100.00;99253.27;1758179;81;20912;-70
2021/07/25 07:46:48;;;;;;;12.07;6.00;;;;;;;26.31;100.00;99258.80;1758292;80;21554;-66
2021/07/25 07:49:16;;;;;;;14.00;5.92;;;;;;;26.42;99.00;99265.34;1758261;80;20979;-68
2021/07/25 07:51:43;;;;;;;10.10;5.62;;;;;;;26.48;96.42;99258.16;1758148;80;20972;-70
2021/07/25 07:54:11;;;;;;;21.37;5.70;;;;;;;26.57;94.76;99261.59;1758221;81;21170;-68
2021/07/25 07:56:39;;;;;;;10.32;5.60;;;;;;;26.69;94.85;99262.58;1758168;81;21509;-70
2021/07/25 07:59:07;;;;;;;32.42;6.17;;;;;;;26.79;89.08;99263.66;1757931;80;21014;-70
2021/07/25 08:01:35;;;;;;;17.98;6.15;;;;;;;26.84;83.42;99261.00;1756704;80;21557;-70
2021/07/25 08:04:03;;;;;;;22.98;5.92;;;;;;;26.89;83.55;99262.02;1757395;80;20880;-68
2021/07/25 08:06:31;;;;;;;9.03;5.37;;;;;;;26.95;83.35;99259.75;1755635;80;21791;-70
2021/07/25 08:08:58;;;;;;;23.40;6.80;;;;;;;27.04;83.72;99271.82;1741529;80;21426;-69
2021/07/25 08:11:26;;;;;;;17.80;5.70;;;;;;;27.11;79.25;99274.47;1737282;81;20899;-69
2021/07/25 08:13:54;;;;;;;12.75;5.70;;;;;;;27.20;79.51;99275.16;1749313;81;20924;-69
2021/07/25 08:16:21;;;;;;;12.90;5.10;;;;;;;27.32;76.53;99280.66;1740808;80;21092;-69
2021/07/25 08:18:49;;;;;;;17.77;5.75;;;;;;;27.37;72.81;99276.63;1733866;81;21166;-69
2021/07/25 08:21:17;;;;;;;18.00;5.40;;;;;;;27.45;68.21;99285.09;1732667;81;21415;-69
2021/07/25 08:23:44;;;;;;;8.18;4.42;;;;;;;27.52;64.13;99278.25;1741427;81;20931;-68
2021/07/25 08:26:13;;;;;;;11.12;4.50;;;;;;;27.63;64.30;99277.48;1732735;81;20991;-69
2021/07/25 08:28:41;;;;;;;8.63;4.83;;;;;;;27.76;64.94;99273.38;1741670;81;21557;-69
2021/07/25 08:31:08;;;;;;;32.00;5.83;;;;;;;27.86;60.72;99276.63;1743712;80;21857;-69
2021/07/25 08:33:36;;;;;;;120.90;10.00;;;;;;;27.92;58.59;99283.96;1734514;81;21010;-71
2021/07/25 08:36:04;;;;;;;8.23;4.53;;;;;;;27.99;57.68;99277.95;1743211;81;21419;-72
2021/07/25 08:38:33;;;;;;;5.05;3.72;;;;;;;28.05;55.52;99277.49;1734136;81;20916;-70
2021/07/25 08:41:34;;;;;;;11.25;4.15;;;;;;;28.15;55.73;99272.23;1741183;81;20987;-70
2021/07/25 08:44:49;;;;;;;6.62;3.95;;;;;;;28.29;56.51;99267.13;1727842;81;21849;-69
2021/07/25 08:47:30;;;;;;;5.72;3.77;;;;;;;28.41;54.55;99267.58;1714113;83;21486;-72
2021/07/25 08:50:09;;;;;;;19.55;4.95;;;;;;;28.49;52.78;99263.77;1712195;83;20926;-72
2021/07/25 08:52:42;;;;;;;129.68;11.43;;;;;;;28.53;53.04;99264.77;1692962;83;20946;-69
2021/07/25 08:55:15;;;;;;;6.45;3.80;;;;;;;28.60;50.59;99267.00;1675687;85;20948;-72
2021/07/25 08:57:47;;;;;;;21.15;5.58;;;;;;;28.63;50.44;99270.34;1675557;85;21376;-69
2021/07/25 09:00:18;;;;;;;6.30;3.98;;;;;;;28.67;49.99;99275.03;1683744;84;20881;-70
2021/07/25 09:02:48;;;;;;;4.92;3.62;;;;;;;28.71;49.93;99260.23;1693328;84;20960;-70
2021/07/25 09:05:16;;;;;;;5.25;3.52;;;;;;;28.85;51.50;99261.39;1688237;84;20924;-69
2021/07/25 09:07:48;;;;;;;6.60;3.65;;;;;;;29.01;49.09;99263.78;1675446;85;21482;-71
2021/07/25 09:10:19;;;;;;;5.22;3.80;;;;;;;29.07;46.22;99269.58;1675834;85;21779;-70
2021/07/25 09:12:47;;;;;;;7.85;3.87;;;;;;;29.13;46.18;99265.50;1675420;85;21451;-71
2021/07/25 09:15:31;;;;;;;8.58;3.30;;;;;;;29.21;47.01;99263.03;1675595;85;20960;-68
2021/07/25 09:18:01;;;;;;;11.60;4.10;;;;;;;29.26;46.03;99267.59;1687903;84;21555;-70
2021/07/25 09:20:36;;;;;;;4.40;3.50;;;;;;;29.32;46.44;99268.45;1690043;84;21047;-69
2021/07/25 09:23:11;;;;;;;6.12;3.83;;;;;;;29.39;45.98;99268.85;1684924;84;21176;-68
2021/07/25 09:25:43;;;;;;;8.38;3.52;;;;;;;29.44;48.22;99264.80;1721828;82;20903;-70
2021/07/25 09:28:25;;;;;;;34.47;4.47;;;;;;;29.49;50.08;99277.15;1705716;83;21480;-64
2021/07/25 09:30:54;;;;;;;7.83;3.60;;;;;;;29.40;47.54;99274.16;1711402;83;20914;-68
2021/07/25 09:33:33;;;;;;;6.65;3.67;;;;;;;29.34;47.47;99276.02;1692947;83;20884;-69
2021/07/25 09:36:11;;;;;;;7.65;4.10;;;;;;;29.27;47.83;99280.19;1692697;84;21162;-64
2021/07/25 09:38:40;;;;;;;4.55;3.92;;;;;;;29.28;48.02;99279.20;1693241;84;20938;-71
2021/07/25 09:41:20;;;;;;;5.42;4.55;;;;;;;29.31;45.94;99272.16;1692944;84;20948;-68
2021/07/25 09:44:04;;;;;;;8.78;3.90;;;;;;;29.26;44.91;99274.88;1692918;84;20934;-72
2021/07/25 09:46:45;;;;;;;15.00;4.65;;;;;;;29.14;44.87;99273.53;1693306;83;20966;-70
2021/07/25 09:49:12;;;;;;;8.95;4.12;;;;;;;29.10;45.20;99270.69;1722153;83;21158;-70
2021/07/25 09:51:41;;;;;;;8.00;4.05;;;;;;;29.09;45.85;99270.32;1722118;82;20951;-71
2021/07/25 09:54:08;;;;;;;4.85;3.80;;;;;;;29.04;45.47;99272.55;1721818;83;20943;-69
2021/07/25 09:56:36;;;;;;;9.85;3.90;;;;;;;29.00;45.95;99277.84;1721814;82;20935;-70
2021/07/25 09:59:04;;;;;;;4.35;3.55;;;;;;;29.00;46.98;99276.98;1721857;83;21022;-70
2021/07/25 10:01:42;;;;;;;4.72;3.60;;;;;;;28.99;49.08;99273.90;1694428;82;21179;-70
2021/07/25 10:04:17;;;;;;;17.85;3.83;;;;;;;28.96;50.30;99270.94;1721752;83;20966;-70
2021/07/25 10:06:49;;;;;;;8.28;4.42;;;;;;;28.95;51.96;99276.49;1721865;83;21430;-70
2021/07/25 10:09:19;;;;;;;8.43;4.47;;;;;;;28.88;54.76;99267.11;1712775;83;20950;-70
2021/07/25 10:11:58;;;;;;;24.75;6.37;;;;;;;28.84;57.36;99274.59;1692948;83;21097;-69
2021/07/25 10:14:29;;;;;;;7.95;4.90;;;;;;;28.80;58.55;99271.72;1692943;83;21173;-69
2021/07/25 10:16:59;;;;;;;9.75;4.67;;;;;;;28.76;59.90;99264.80;1692951;84;20922;-68
2021/07/25 10:19:36;;;;;;;4.58;4.10;;;;;;;28.72;61.93;99273.69;1692992;84;20903;-67
2021/07/25 10:22:09;;;;;;;6.75;4.35;;;;;;;28.67;63.32;99270.47;1692869;84;21068;-68
2021/07/25 10:24:38;;;;;;;5.20;3.87;;;;;;;28.61;62.62;99270.95;1689890;83;20942;-70
2021/07/25 10:27:06;;;;;;;7.75;4.10;;;;;;;28.56;62.45;99269.09;1687687;83;21105;-70
2021/07/25 10:29:37;;;;;;;5.30;3.98;;;;;;;28.52;66.10;99268.96;1687649;85;21136;-66
2021/07/25 10:32:08;;;;;;;13.03;4.42;;;;;;;28.49;67.38;99273.27;1704851;83;21251;-70
2021/07/25 10:34:40;;;;;;;10.78;4.65;;;;;;;28.44;68.24;99270.91;1723064;82;20940;-70
2021/07/25 10:37:09;;;;;;;9.05;4.87;;;;;;;28.40;70.08;99262.64;1722815;82;21036;-70
2021/07/25 10:39:37;;;;;;;6.72;5.10;;;;;;;28.38;70.21;99264.61;1704849;83;21169;-71
2021/07/25 10:42:05;;;;;;;19.65;5.20;;;;;;;28.35;68.60;99263.95;1722459;83;20880;-70
2021/07/25 10:44:33;;;;;;;7.83;4.70;;;;;;;28.32;69.69;99262.34;1722522;82;20915;-70
2021/07/25 10:47:30;;;;;;;10.85;4.92;;;;;;;28.31;67.49;99263.81;1687749;83;21482;-70
2021/07/25 10:50:06;;;;;;;6.42;4.30;;;;;;;28.28;67.21;99258.12;1687984;85;20970;-69
2021/07/25 10:52:59;;;;;;;16.93;4.72;;;;;;;28.28;67.91;99264.05;1687664;83;21154;-70
2021/07/25 10:55:43;;;;;;;8.13;4.92;;;;;;;28.28;68.36;99259.98;1687787;85;20937;-70
2021/07/25 10:58:20;;;;;;;5.90;4.03;;;;;;;28.33;73.21;99255.06;1687724;83;21599;-70
2021/07/25 11:00:56;;;;;;;10.32;4.45;;;;;;;28.45;76.51;99260.92;1688021;83;21485;-70
2021/07/25 11:03:35;;;;;;;11.12;4.40;;;;;;;28.59;75.80;99256.64;1712696;83;20908;-69
2021/07/25 11:06:15;;;;;;;6.53;4.17;;;;;;;28.72;72.65;99249.75;1755649;80;21155;-70
2021/07/25 11:08:44;;;;;;;8.78;4.05;;;;;;;28.82;67.02;99254.32;1752505;82;21502;-70
2021/07/25 11:11:35;;;;;;;6.45;4.30;;;;;;;29.11;65.27;99247.11;1752744;82;20959;-70
2021/07/25 11:14:07;;;;;;;10.10;4.47;;;;;;;29.27;64.88;99239.44;1716679;82;20931;-71
2021/07/25 11:16:39;;;;;;;8.43;4.35;;;;;;;29.44;62.45;99238.98;1716834;83;20990;-70
2021/07/25 11:19:13;;;;;;;13.48;4.15;;;;;;;29.56;60.16;99245.26;1752558;81;21148;-70
2021/07/25 11:21:43;;;;;;;9.63;4.78;;;;;;;29.62;58.78;99242.52;1716598;82;21112;-70
2021/07/25 11:24:26;;;;;;;10.20;4.28;;;;;;;29.66;58.02;99243.50;1714242;82;21667;-63
2021/07/25 11:26:56;;;;;;;6.17;4.30;;;;;;;29.66;58.07;99246.72;1744527;80;20888;-72
2021/07/25 11:29:36;;;;;;;41.37;5.00;;;;;;;29.64;59.10;99241.91;1744526;82;20876;-72
2021/07/25 11:32:07;;;;;;;6.05;4.10;;;;;;;29.61;59.90;99252.53;1744503;82;21114;-69
2021/07/25 11:34:39;;;;;;;7.33;4.90;;;;;;;29.61;60.56;99251.17;1744515;82;20869;-72
2021/07/25 11:37:08;;;;;;;49.03;6.72;;;;;;;29.63;61.70;99244.25;1717503;81;20881;-72
2021/07/25 11:39:36;;;;;;;16.05;5.33;;;;;;;29.63;61.43;99244.25;1744733;81;21408;-72
2021/07/25 11:42:08;;;;;;;5.75;4.15;;;;;;;29.71;63.59;99244.48;1744500;81;20937;-72